Time,TemperatureF,DewpointF,PressureIn,WindDirection,WindDirectionDegrees,WindSpeedMPH,WindSpeedGustMPH,Humidity,HourlyPrecipIn,Conditions,Clouds,dailyrainin,SoftwareType,DateUTC
2013-02-24 00:05:00,31.1,24.8,29.69,NW,315,0.0,0.4,77,0.00,,SKC,0.00,VWS V14.01,2013-02-24 07:05:00,
2013-02-24 00:10:00,31.1,24.8,29.69,NW,315,0.0,0.4,77,0.00,,SKC,0.00,VWS V14.01,2013-02-24 07:10:00,
2013-02-24 00:15:00,31.1,24.8,29.69,NW,315,0.0,0.4,77,0.00,,SKC,0.00,VWS V14.01,2013-02-24 07:15:00,
2013-02-24 00:20:00,31.0,24.6,29.69,NW,315,0.0,0.4,77,0.00,,SKC,0.00,VWS V14.01,2013-02-24 07:20:00,
2013-02-24 00:25:00,31.0,25.0,29.69,NW,315,0.0,0.4,78,0.00,,SKC,0.00,VWS V14.01,2013-02-24 07:25:00,
2013-02-24 00:30:00,30.8,24.8,29.69,NW,315,0.0,0.0,78,0.00,,SKC,0.00,VWS V14.01,2013-02-24 07:30:00,
2013-02-24 00:35:00,30.6,24.6,29.70,NW,315,0.0,0.0,78,0.00,,SKC,0.00,VWS V14.01,2013-02-24 07:35:00,
2013-02-24 00:40:00,30.6,24.9,29.70,NW,315,0.0,0.2,79,0.00,,SKC,0.00,VWS V14.01,2013-02-24 07:40:00,
2013-02-24 00:45:00,30.4,24.7,29.70,NW,315,0.0,0.2,79,0.00,,SKC,0.00,VWS V14.01,2013-02-24 07:45:00,
2013-02-24 00:51:00,30.4,24.7,29.70,NW,315,0.0,0.2,79,0.00,,SKC,0.00,VWS V14.01,2013-02-24 07:51:00,
2013-02-24 00:56:00,30.4,25.3,29.70,North,0,0.0,0.2,81,0.00,,SKC,0.00,VWS V14.01,2013-02-24 07:56:00,
2013-02-24 01:01:00,30.4,25.3,29.70,North,0,0.0,0.4,81,0.00,,SKC,0.00,VWS V14.01,2013-02-24 08:01:00,
2013-02-24 01:06:00,30.4,25.3,29.70,North,0,0.0,0.4,81,0.00,,SKC,0.00,VWS V14.01,2013-02-24 08:06:00,
2013-02-24 01:11:00,30.4,25.3,29.70,NNW,338,0.2,0.4,81,0.00,,SKC,0.00,VWS V14.01,2013-02-24 08:11:00,
2013-02-24 01:16:00,30.6,25.5,29.71,NNW,338,0.2,0.4,81,0.00,,SKC,0.00,VWS V14.01,2013-02-24 08:16:00,
2013-02-24 01:21:00,30.6,25.8,29.71,East,90,0.4,1.1,82,0.00,,SKC,0.00,VWS V14.01,2013-02-24 08:21:00,
2013-02-24 01:26:00,30.4,25.9,29.70,East,90,0.0,1.1,83,0.00,,SKC,0.00,VWS V14.01,2013-02-24 08:26:00,
2013-02-24 01:32:00,30.6,26.4,29.71,NNW,338,0.4,0.4,84,0.00,,SKC,0.00,VWS V14.01,2013-02-24 08:32:00,
2013-02-24 01:37:00,30.6,26.4,29.70,NW,315,0.0,0.4,84,0.00,,SKC,0.00,VWS V14.01,2013-02-24 08:37:00,
2013-02-24 01:42:00,30.8,26.5,29.71,WNW,292,0.4,1.1,84,0.00,,SKC,0.00,VWS V14.01,2013-02-24 08:42:00,
2013-02-24 01:47:00,30.8,26.5,29.71,WNW,292,0.4,2.5,84,0.00,,SKC,0.00,VWS V14.01,2013-02-24 08:47:00,
2013-02-24 01:52:00,30.8,26.5,29.71,East,90,0.7,2.5,84,0.00,,SKC,0.00,VWS V14.01,2013-02-24 08:52:00,
2013-02-24 01:57:00,30.8,26.5,29.72,NNW,338,1.1,2.5,84,0.00,,SKC,0.00,VWS V14.01,2013-02-24 08:57:00,
2013-02-24 02:02:00,30.6,26.4,29.72,NNW,338,0.0,1.6,84,0.00,,SKC,0.00,VWS V14.01,2013-02-24 09:02:00,
2013-02-24 02:07:00,30.6,26.4,29.72,ENE,68,0.9,1.6,84,0.00,,SKC,0.00,VWS V14.01,2013-02-24 09:07:00,
2013-02-24 02:13:00,30.4,26.1,29.72,WNW,292,0.9,1.6,84,0.00,,SKC,0.00,VWS V14.01,2013-02-24 09:13:00,
2013-02-24 02:18:00,30.2,25.7,29.72,WNW,292,2.0,2.2,83,0.00,,SKC,0.00,VWS V14.01,2013-02-24 09:18:00,
2013-02-24 02:23:00,29.9,25.4,29.72,WNW,292,3.4,3.4,83,0.00,,SKC,0.00,VWS V14.01,2013-02-24 09:23:00,
2013-02-24 02:28:00,29.9,25.4,29.73,NW,315,2.7,3.4,83,0.00,,SKC,0.00,VWS V14.01,2013-02-24 09:28:00,
2013-02-24 02:33:00,29.7,25.2,29.73,NW,315,1.1,1.1,83,0.00,,SKC,0.00,VWS V14.01,2013-02-24 09:33:00,
2013-02-24 02:38:00,29.3,24.8,29.73,North,0,0.2,2.7,83,0.00,,SKC,0.00,VWS V14.01,2013-02-24 09:38:00,
2013-02-24 02:43:00,29.2,24.7,29.73,NNE,22,3.4,3.8,83,0.00,,SKC,0.00,VWS V14.01,2013-02-24 09:43:00,
2013-02-24 02:48:00,28.8,24.3,29.73,WNW,292,0.4,3.8,83,0.00,,SKC,0.00,VWS V14.01,2013-02-24 09:48:00,
2013-02-24 02:54:00,28.6,24.4,29.74,NNW,338,1.8,3.8,84,0.00,,SKC,0.00,VWS V14.01,2013-02-24 09:54:00,
2013-02-24 02:59:00,28.4,24.2,29.73,NW,315,1.6,6.5,84,0.00,,SKC,0.00,VWS V14.01,2013-02-24 09:59:00,
2013-02-24 03:04:00,28.3,24.1,29.74,NE,45,2.5,2.5,84,0.00,,SKC,0.00,VWS V14.01,2013-02-24 10:04:00,
2013-02-24 03:09:00,28.3,24.4,29.74,NW,315,3.6,3.6,85,0.00,,SKC,0.00,VWS V14.01,2013-02-24 10:09:00,
2013-02-24 03:14:00,28.1,23.9,29.74,NNW,338,0.2,3.6,84,0.00,,SKC,0.00,VWS V14.01,2013-02-24 10:14:00,
2013-02-24 03:19:00,28.1,23.6,29.75,NW,315,0.4,3.6,83,0.00,,SKC,0.00,VWS V14.01,2013-02-24 10:19:00,
2013-02-24 03:24:00,28.1,23.6,29.75,NW,315,1.1,3.6,83,0.00,,SKC,0.00,VWS V14.01,2013-02-24 10:24:00,
2013-02-24 03:29:00,28.1,23.6,29.75,NW,315,0.4,3.6,83,0.00,,SKC,0.00,VWS V14.01,2013-02-24 10:29:00,
2013-02-24 03:34:00,28.3,23.8,29.75,North,0,0.4,1.8,83,0.00,,SKC,0.00,VWS V14.01,2013-02-24 10:34:00,
2013-02-24 03:40:00,28.1,23.3,29.75,NW,315,2.0,3.4,82,0.00,,SKC,0.00,VWS V14.01,2013-02-24 10:40:00,
2013-02-24 03:45:00,28.1,23.3,29.76,ENE,68,3.4,3.4,82,0.00,,SKC,0.00,VWS V14.01,2013-02-24 10:45:00,
2013-02-24 03:50:00,28.1,23.3,29.76,NW,315,0.7,3.4,82,0.00,,SKC,0.00,VWS V14.01,2013-02-24 10:50:00,
2013-02-24 03:55:00,28.1,23.3,29.76,NW,315,0.4,3.4,82,0.00,,SKC,0.00,VWS V14.01,2013-02-24 10:55:00,
2013-02-24 04:00:00,28.1,23.3,29.76,NW,315,0.7,3.4,82,0.00,,SKC,0.00,VWS V14.01,2013-02-24 11:00:00,
2013-02-24 04:05:00,27.9,23.1,29.76,North,0,0.4,3.4,82,0.00,,SKC,0.00,VWS V14.01,2013-02-24 11:05:00,
2013-02-24 04:10:00,27.9,22.8,29.76,NNW,338,2.0,3.4,81,0.00,,SKC,0.00,VWS V14.01,2013-02-24 11:10:00,
2013-02-24 04:16:00,27.9,23.1,29.76,WNW,292,0.0,4.7,82,0.00,,SKC,0.00,VWS V14.01,2013-02-24 11:16:00,
2013-02-24 04:21:00,27.9,23.1,29.76,North,0,1.6,4.7,82,0.00,,SKC,0.00,VWS V14.01,2013-02-24 11:21:00,
2013-02-24 04:26:00,27.9,23.1,29.76,WNW,292,0.7,4.7,82,0.00,,SKC,0.00,VWS V14.01,2013-02-24 11:26:00,
2013-02-24 04:31:00,27.9,22.8,29.76,NW,315,0.4,2.9,81,0.00,,SKC,0.00,VWS V14.01,2013-02-24 11:31:00,
2013-02-24 04:36:00,28.1,23.0,29.76,NW,315,0.4,2.9,81,0.00,,SKC,0.00,VWS V14.01,2013-02-24 11:36:00,
2013-02-24 04:41:00,28.1,23.0,29.76,North,0,0.9,2.9,81,0.00,,SKC,0.00,VWS V14.01,2013-02-24 11:41:00,
2013-02-24 04:46:00,28.1,22.7,29.77,NW,315,0.4,2.9,80,0.00,,SKC,0.00,VWS V14.01,2013-02-24 11:46:00,
2013-02-24 04:51:00,28.1,22.7,29.77,NW,315,0.4,2.9,80,0.00,,SKC,0.00,VWS V14.01,2013-02-24 11:51:00,
2013-02-24 04:57:00,28.1,22.7,29.77,WNW,292,0.9,2.9,80,0.00,,SKC,0.00,VWS V14.01,2013-02-24 11:57:00,
2013-02-24 05:02:00,28.1,22.7,29.77,WNW,292,4.5,4.5,80,0.00,,SKC,0.00,VWS V14.01,2013-02-24 12:02:00,
2013-02-24 05:07:00,28.1,22.7,29.78,WNW,292,0.7,4.5,80,0.00,,SKC,0.00,VWS V14.01,2013-02-24 12:07:00,
2013-02-24 05:12:00,28.1,22.7,29.78,NW,315,1.3,4.5,80,0.00,,SKC,0.00,VWS V14.01,2013-02-24 12:12:00,
2013-02-24 05:17:00,28.1,22.7,29.78,NW,315,2.2,4.5,80,0.00,,SKC,0.00,VWS V14.01,2013-02-24 12:17:00,
2013-02-24 05:22:00,28.1,22.7,29.78,NNE,22,2.0,4.5,80,0.00,,SKC,0.00,VWS V14.01,2013-02-24 12:22:00,
2013-02-24 05:27:00,28.1,22.4,29.78,ENE,68,2.5,4.5,79,0.00,,SKC,0.00,VWS V14.01,2013-02-24 12:27:00,
2013-02-24 05:32:00,28.1,22.7,29.78,WNW,292,4.0,4.0,80,0.00,,SKC,0.00,VWS V14.01,2013-02-24 12:32:00,
2013-02-24 05:37:00,28.3,22.9,29.79,NE,45,0.4,4.7,80,0.00,,SKC,0.00,VWS V14.01,2013-02-24 12:37:00,
2013-02-24 05:43:00,28.1,22.4,29.79,NW,315,1.8,4.7,79,0.00,,SKC,0.00,VWS V14.01,2013-02-24 12:43:00,
2013-02-24 05:48:00,28.1,22.4,29.79,North,0,1.1,4.7,79,0.00,,SKC,0.00,VWS V14.01,2013-02-24 12:48:00,
2013-02-24 05:53:00,28.1,22.7,29.79,NNW,338,1.8,4.7,80,0.00,,SKC,0.00,VWS V14.01,2013-02-24 12:53:00,
2013-02-24 05:58:00,28.1,22.7,29.79,North,0,1.8,4.7,80,0.00,,SKC,0.00,VWS V14.01,2013-02-24 12:58:00,
2013-02-24 06:03:00,28.1,22.7,29.80,North,0,1.3,2.2,80,0.00,,SKC,0.00,VWS V14.01,2013-02-24 13:03:00,
2013-02-24 06:08:00,28.1,22.7,29.80,North,0,0.9,2.2,80,0.00,,SKC,0.00,VWS V14.01,2013-02-24 13:08:00,
2013-02-24 06:13:00,27.9,22.5,29.80,WNW,292,0.7,3.6,80,0.00,,SKC,0.00,VWS V14.01,2013-02-24 13:13:00,
2013-02-24 06:18:00,28.1,23.0,29.80,North,0,0.4,3.6,81,0.00,,SKC,0.00,VWS V14.01,2013-02-24 13:18:00,
2013-02-24 06:24:00,28.1,23.0,29.80,NNE,22,2.0,3.6,81,0.00,,SKC,0.00,VWS V14.01,2013-02-24 13:24:00,
2013-02-24 06:29:00,27.9,22.8,29.80,NNW,338,0.4,3.6,81,0.00,,SKC,0.00,VWS V14.01,2013-02-24 13:29:00,
2013-02-24 06:34:00,27.9,22.8,29.80,NW,315,1.1,1.6,81,0.00,,SKC,0.00,VWS V14.01,2013-02-24 13:34:00,
2013-02-24 06:39:00,28.1,23.0,29.80,NW,315,0.4,1.8,81,0.00,,SKC,0.00,VWS V14.01,2013-02-24 13:39:00,
2013-02-24 06:44:00,27.9,22.5,29.80,East,90,0.4,5.4,80,0.00,,SKC,0.00,VWS V14.01,2013-02-24 13:44:00,
2013-02-24 06:49:00,27.9,22.5,29.80,North,0,1.1,5.4,80,0.00,,SKC,0.00,VWS V14.01,2013-02-24 13:49:00,
2013-02-24 06:55:00,27.9,22.5,29.81,WNW,292,0.2,5.4,80,0.00,,SKC,0.00,VWS V14.01,2013-02-24 13:55:00,
2013-02-24 07:00:00,27.9,22.5,29.81,WNW,292,0.4,5.4,80,0.00,,SKC,0.00,VWS V14.01,2013-02-24 14:00:00,
2013-02-24 07:05:00,27.9,22.5,29.81,NNE,22,0.7,3.4,80,0.00,,SKC,0.00,VWS V14.01,2013-02-24 14:05:00,
2013-02-24 07:10:00,27.9,22.8,29.81,North,0,1.6,4.9,81,0.00,,SKC,0.00,VWS V14.01,2013-02-24 14:10:00,
2013-02-24 07:15:00,27.9,22.8,29.81,NNW,338,2.0,4.9,81,0.00,,SKC,0.00,VWS V14.01,2013-02-24 14:15:00,
2013-02-24 07:20:00,27.9,22.8,29.81,NW,315,3.4,4.9,81,0.00,,SKC,0.00,VWS V14.01,2013-02-24 14:20:00,
2013-02-24 07:25:00,27.7,22.9,29.82,NW,315,2.7,4.9,82,0.00,,SKC,0.00,VWS V14.01,2013-02-24 14:25:00,
2013-02-24 07:30:00,27.7,22.9,29.82,WNW,292,1.8,1.8,82,0.00,,SKC,0.00,VWS V14.01,2013-02-24 14:30:00,
2013-02-24 07:36:00,27.9,22.8,29.82,WNW,292,1.3,2.2,81,0.00,,SKC,0.00,VWS V14.01,2013-02-24 14:36:00,
2013-02-24 07:41:00,27.9,22.8,29.83,NW,315,1.8,2.2,81,0.00,,SKC,0.00,VWS V14.01,2013-02-24 14:41:00,
2013-02-24 07:46:00,27.7,22.6,29.83,NW,315,1.1,2.5,81,0.00,,SKC,0.00,VWS V14.01,2013-02-24 14:46:00,
2013-02-24 07:51:00,27.9,22.8,29.83,North,0,3.1,3.1,81,0.00,,SKC,0.00,VWS V14.01,2013-02-24 14:51:00,
2013-02-24 07:56:00,27.9,22.5,29.83,NNW,338,0.0,3.1,80,0.00,,SKC,0.00,VWS V14.01,2013-02-24 14:56:00,
2013-02-24 08:01:00,27.9,22.5,29.83,WNW,292,0.9,0.9,80,0.00,,SKC,0.00,VWS V14.01,2013-02-24 15:01:00,
2013-02-24 08:06:00,28.1,22.4,29.83,NNW,338,1.8,3.6,79,0.00,,SKC,0.00,VWS V14.01,2013-02-24 15:06:00,
2013-02-24 08:11:00,28.3,22.6,29.83,NNW,338,0.4,3.6,79,0.00,,SKC,0.00,VWS V14.01,2013-02-24 15:11:00,
2013-02-24 08:17:00,28.4,22.7,29.83,East,90,1.6,3.6,79,0.00,,SKC,0.00,VWS V14.01,2013-02-24 15:17:00,
2013-02-24 08:22:00,28.4,22.1,29.83,NW,315,0.9,3.6,77,0.00,,SKC,0.00,VWS V14.01,2013-02-24 15:22:00,
2013-02-24 08:27:00,28.6,22.3,29.83,NW,315,0.7,3.6,77,0.00,,SKC,0.00,VWS V14.01,2013-02-24 15:27:00,
2013-02-24 08:32:00,28.8,22.2,29.83,NW,315,1.6,1.6,76,0.00,,SKC,0.00,VWS V14.01,2013-02-24 15:32:00,
2013-02-24 08:37:00,29.0,22.4,29.83,WNW,292,1.1,1.6,76,0.00,,SKC,0.00,VWS V14.01,2013-02-24 15:37:00,
2013-02-24 08:42:00,29.2,22.3,29.84,WNW,292,1.1,2.7,75,0.00,,SKC,0.00,VWS V14.01,2013-02-24 15:42:00,
2013-02-24 08:47:00,29.2,22.3,29.84,NW,315,4.7,4.7,75,0.00,,SKC,0.00,VWS V14.01,2013-02-24 15:47:00,
2013-02-24 08:52:00,29.2,22.3,29.84,NW,315,1.3,4.7,75,0.00,,SKC,0.00,VWS V14.01,2013-02-24 15:52:00,
2013-02-24 08:58:00,29.2,22.6,29.84,NNW,338,2.5,4.7,76,0.00,,SKC,0.00,VWS V14.01,2013-02-24 15:58:00,
2013-02-24 09:03:00,29.2,22.6,29.84,NNE,22,0.2,0.9,76,0.00,,SKC,0.00,VWS V14.01,2013-02-24 16:03:00,
2013-02-24 09:08:00,29.5,22.6,29.85,WNW,292,0.7,1.6,75,0.00,,SKC,0.00,VWS V14.01,2013-02-24 16:08:00,
2013-02-24 09:13:00,29.5,22.6,29.85,NW,315,0.4,2.5,75,0.00,,SKC,0.00,VWS V14.01,2013-02-24 16:13:00,
2013-02-24 09:18:00,29.5,22.9,29.85,WNW,292,1.3,4.0,76,0.00,,SKC,0.00,VWS V14.01,2013-02-24 16:18:00,
2013-02-24 09:23:00,29.5,22.6,29.85,WNW,292,1.1,4.0,75,0.00,,SKC,0.00,VWS V14.01,2013-02-24 16:23:00,
2013-02-24 09:29:00,29.5,22.6,29.85,NW,315,2.9,4.0,75,0.00,,SKC,0.00,VWS V14.01,2013-02-24 16:29:00,
2013-02-24 09:34:00,29.3,21.7,29.85,WNW,292,2.0,3.4,73,0.00,,SKC,0.00,VWS V14.01,2013-02-24 16:34:00,
2013-02-24 09:39:00,29.2,22.0,29.85,NNE,22,1.1,3.4,74,0.00,,SKC,0.00,VWS V14.01,2013-02-24 16:39:00,
2013-02-24 09:44:00,29.3,21.7,29.85,NW,315,2.7,3.4,73,0.00,,SKC,0.00,VWS V14.01,2013-02-24 16:44:00,
2013-02-24 09:49:00,29.2,21.6,29.86,NW,315,2.7,3.4,73,0.00,,SKC,0.00,VWS V14.01,2013-02-24 16:49:00,
2013-02-24 09:54:00,29.5,21.9,29.86,NNE,22,0.4,3.4,73,0.00,,SKC,0.00,VWS V14.01,2013-02-24 16:54:00,
2013-02-24 09:59:00,29.7,21.8,29.86,WNW,292,0.4,3.4,72,0.00,,SKC,0.00,VWS V14.01,2013-02-24 16:59:00,
2013-02-24 10:04:00,29.9,21.7,29.86,NW,315,2.5,2.5,71,0.00,,SKC,0.00,VWS V14.01,2013-02-24 17:04:00,
2013-02-24 10:10:00,30.1,21.9,29.86,WNW,292,0.4,2.5,71,0.00,,SKC,0.00,VWS V14.01,2013-02-24 17:10:00,
2013-02-24 10:15:00,30.6,21.6,29.86,WNW,292,0.4,3.1,69,0.00,,SKC,0.00,VWS V14.01,2013-02-24 17:15:00,
2013-02-24 10:20:00,30.6,21.6,29.86,NW,315,2.0,3.1,69,0.00,,SKC,0.00,VWS V14.01,2013-02-24 17:20:00,
2013-02-24 10:25:00,31.0,22.4,29.86,WNW,292,3.1,3.1,70,0.00,,SKC,0.00,VWS V14.01,2013-02-24 17:25:00,
2013-02-24 10:30:00,31.1,22.1,29.86,NNE,22,2.0,2.0,69,0.00,,SKC,0.00,VWS V14.01,2013-02-24 17:30:00,
2013-02-24 10:35:00,31.0,22.0,29.86,WNW,292,1.6,2.0,69,0.00,,SKC,0.00,VWS V14.01,2013-02-24 17:35:00,
2013-02-24 10:40:00,31.1,22.1,29.86,NW,315,1.8,3.6,69,0.00,,SKC,0.00,VWS V14.01,2013-02-24 17:40:00,
2013-02-24 10:45:00,31.3,22.3,29.86,WNW,292,1.8,3.6,69,0.00,,SKC,0.00,VWS V14.01,2013-02-24 17:45:00,
2013-02-24 10:51:00,31.1,22.1,29.86,NW,315,3.4,3.6,69,0.00,,SKC,0.00,VWS V14.01,2013-02-24 17:51:00,
2013-02-24 10:56:00,31.0,22.0,29.87,WNW,292,2.5,3.6,69,0.00,,SKC,0.00,VWS V14.01,2013-02-24 17:56:00,
2013-02-24 11:01:00,30.6,22.0,29.87,WNW,292,2.7,2.7,70,0.00,,SKC,0.00,VWS V14.01,2013-02-24 18:01:00,
2013-02-24 11:06:00,30.4,21.8,29.86,East,90,2.0,3.4,70,0.00,,SKC,0.00,VWS V14.01,2013-02-24 18:06:00,
2013-02-24 11:11:00,30.2,21.9,29.86,NW,315,2.0,3.4,71,0.00,,SKC,0.00,VWS V14.01,2013-02-24 18:11:00,
2013-02-24 11:16:00,30.4,22.1,29.87,East,90,3.4,3.4,71,0.00,,SKC,0.00,VWS V14.01,2013-02-24 18:16:00,
2013-02-24 11:21:00,30.1,21.9,29.87,NNW,338,2.5,4.5,71,0.00,,SKC,0.00,VWS V14.01,2013-02-24 18:21:00,
2013-02-24 11:26:00,29.9,21.7,29.87,WNW,292,2.2,4.5,71,0.00,,SKC,0.00,VWS V14.01,2013-02-24 18:26:00,
2013-02-24 11:32:00,29.9,22.0,29.87,NNW,338,2.5,2.5,72,0.00,,SKC,0.00,VWS V14.01,2013-02-24 18:32:00,
2013-02-24 11:37:00,29.7,21.8,29.87,North,0,4.0,4.0,72,0.00,,SKC,0.00,VWS V14.01,2013-02-24 18:37:00,
2013-02-24 11:42:00,29.7,22.1,29.87,North,0,3.4,5.8,73,0.00,,SKC,0.00,VWS V14.01,2013-02-24 18:42:00,
2013-02-24 11:47:00,29.5,21.9,29.87,NE,45,1.8,5.8,73,0.00,,SKC,0.00,VWS V14.01,2013-02-24 18:47:00,
2013-02-24 11:52:00,29.3,22.4,29.88,WNW,292,4.0,5.8,75,0.00,,SKC,0.00,VWS V14.01,2013-02-24 18:52:00,
2013-02-24 11:57:00,29.2,22.0,29.88,ENE,68,1.1,5.8,74,0.00,,SKC,0.00,VWS V14.01,2013-02-24 18:57:00,
2013-02-24 12:02:00,29.0,22.1,29.88,WNW,292,4.0,4.0,75,0.00,,SKC,0.00,VWS V14.01,2013-02-24 19:02:00,
2013-02-24 12:08:00,29.0,22.1,29.88,WNW,292,2.0,4.0,75,0.00,,SKC,0.00,VWS V14.01,2013-02-24 19:08:00,
2013-02-24 12:13:00,28.8,21.9,29.88,WNW,292,2.7,4.5,75,0.00,,SKC,0.00,VWS V14.01,2013-02-24 19:13:00,
2013-02-24 12:18:00,28.8,21.9,29.88,WNW,292,2.2,4.5,75,0.00,,SKC,0.00,VWS V14.01,2013-02-24 19:18:00,
2013-02-24 12:23:00,28.8,21.6,29.88,WNW,292,0.4,5.4,74,0.00,,SKC,0.00,VWS V14.01,2013-02-24 19:23:00,
2013-02-24 12:28:00,28.8,21.9,29.88,NW,315,1.8,5.4,75,0.00,,SKC,0.00,VWS V14.01,2013-02-24 19:28:00,
2013-02-24 12:33:00,28.6,22.0,29.88,NNE,22,2.7,3.1,76,0.00,,SKC,0.00,VWS V14.01,2013-02-24 19:33:00,
2013-02-24 12:38:00,28.4,21.8,29.88,WNW,292,4.5,4.5,76,0.00,,SKC,0.00,VWS V14.01,2013-02-24 19:38:00,
2013-02-24 12:43:00,28.4,22.1,29.88,ENE,68,0.4,4.5,77,0.00,,SKC,0.00,VWS V14.01,2013-02-24 19:43:00,
2013-02-24 12:49:00,28.4,21.8,29.88,NW,315,4.3,4.5,76,0.00,,SKC,0.00,VWS V14.01,2013-02-24 19:49:00,
2013-02-24 12:54:00,28.3,21.7,29.88,NW,315,2.5,4.7,76,0.00,,SKC,0.00,VWS V14.01,2013-02-24 19:54:00,
2013-02-24 12:59:00,28.3,22.0,29.88,ENE,68,3.1,4.7,77,0.00,,SKC,0.00,VWS V14.01,2013-02-24 19:59:00,
2013-02-24 13:04:00,28.3,22.0,29.88,NNE,22,1.6,3.6,77,0.00,,SKC,0.00,VWS V14.01,2013-02-24 20:04:00,
2013-02-24 13:09:00,28.3,22.0,29.88,WNW,292,0.2,3.6,77,0.00,,SKC,0.00,VWS V14.01,2013-02-24 20:09:00,
2013-02-24 13:14:00,28.3,22.0,29.88,North,0,0.2,3.6,77,0.00,,SKC,0.00,VWS V14.01,2013-02-24 20:14:00,
2013-02-24 13:19:00,28.4,22.1,29.88,ENE,68,1.1,3.6,77,0.00,,SKC,0.00,VWS V14.01,2013-02-24 20:19:00,
2013-02-24 13:25:00,28.3,22.0,29.88,WNW,292,1.1,3.6,77,0.00,,SKC,0.00,VWS V14.01,2013-02-24 20:25:00,
2013-02-24 13:30:00,28.3,22.3,29.87,NNW,338,2.9,3.6,78,0.00,,SKC,0.00,VWS V14.01,2013-02-24 20:30:00,
2013-02-24 13:35:00,28.1,21.8,29.88,NNW,338,0.7,6.5,77,0.00,,SKC,0.00,VWS V14.01,2013-02-24 20:35:00,
2013-02-24 13:40:00,28.1,21.8,29.87,NNE,22,1.6,6.5,77,0.00,,SKC,0.00,VWS V14.01,2013-02-24 20:40:00,
2013-02-24 13:45:00,28.4,21.8,29.87,NW,315,2.2,6.5,76,0.00,,SKC,0.00,VWS V14.01,2013-02-24 20:45:00,
2013-02-24 13:50:00,28.4,21.8,29.87,NW,315,1.8,6.5,76,0.00,,SKC,0.00,VWS V14.01,2013-02-24 20:50:00,
2013-02-24 13:55:00,28.4,21.5,29.87,NW,315,0.0,6.5,75,0.00,,SKC,0.00,VWS V14.01,2013-02-24 20:55:00,
2013-02-24 14:01:00,28.4,21.8,29.87,WNW,292,0.7,6.5,76,0.00,,SKC,0.00,VWS V14.01,2013-02-24 21:01:00,
2013-02-24 14:06:00,28.4,21.5,29.87,NW,315,1.3,1.8,75,0.00,,SKC,0.00,VWS V14.01,2013-02-24 21:06:00,
2013-02-24 14:11:00,28.6,22.0,29.88,WNW,292,4.7,4.7,76,0.00,,SKC,0.00,VWS V14.01,2013-02-24 21:11:00,
2013-02-24 14:16:00,28.6,21.7,29.87,NNW,338,0.2,4.7,75,0.00,,SKC,0.00,VWS V14.01,2013-02-24 21:16:00,
2013-02-24 14:21:00,28.8,21.9,29.87,North,0,1.3,4.7,75,0.00,,SKC,0.00,VWS V14.01,2013-02-24 21:21:00,
2013-02-24 14:26:00,28.8,21.6,29.87,WNW,292,1.1,6.5,74,0.00,,SKC,0.00,VWS V14.01,2013-02-24 21:26:00,
2013-02-24 14:31:00,28.8,21.6,29.88,ENE,68,1.1,1.1,74,0.00,,SKC,0.00,VWS V14.01,2013-02-24 21:31:00,
2013-02-24 14:36:00,29.0,22.1,29.88,NNE,22,0.9,1.8,75,0.00,,SKC,0.00,VWS V14.01,2013-02-24 21:36:00,
2013-02-24 14:42:00,29.0,22.1,29.88,NNE,22,0.9,1.8,75,0.00,,SKC,0.00,VWS V14.01,2013-02-24 21:42:00,
2013-02-24 14:47:00,29.2,22.0,29.88,North,0,1.8,2.7,74,0.00,,SKC,0.00,VWS V14.01,2013-02-24 21:47:00,
2013-02-24 14:52:00,29.2,21.6,29.88,NW,315,2.2,3.6,73,0.00,,SKC,0.00,VWS V14.01,2013-02-24 21:52:00,
2013-02-24 14:57:00,29.2,22.3,29.88,East,90,0.9,3.6,75,0.00,,SKC,0.00,VWS V14.01,2013-02-24 21:57:00,
2013-02-24 15:02:00,29.2,21.6,29.88,North,0,2.0,2.9,73,0.00,,SKC,0.00,VWS V14.01,2013-02-24 22:02:00,
2013-02-24 15:07:00,29.2,22.0,29.88,North,0,0.4,4.0,74,0.00,,SKC,0.00,VWS V14.01,2013-02-24 22:07:00,
2013-02-24 15:12:00,29.2,22.0,29.88,East,90,4.5,4.5,74,0.00,,SKC,0.00,VWS V14.01,2013-02-24 22:12:00,
2013-02-24 15:17:00,29.3,22.1,29.88,WNW,292,0.2,4.5,74,0.00,,SKC,0.00,VWS V14.01,2013-02-24 22:17:00,
2013-02-24 15:23:00,29.3,21.7,29.88,WNW,292,0.7,4.5,73,0.00,,SKC,0.00,VWS V14.01,2013-02-24 22:23:00,
2013-02-24 15:28:00,29.3,21.7,29.88,WNW,292,0.9,4.5,73,0.00,,SKC,0.00,VWS V14.01,2013-02-24 22:28:00,
2013-02-24 15:33:00,29.3,21.4,29.88,NW,315,0.4,2.0,72,0.00,,SKC,0.00,VWS V14.01,2013-02-24 22:33:00,
2013-02-24 15:38:00,29.3,21.7,29.88,NW,315,0.2,2.0,73,0.00,,SKC,0.00,VWS V14.01,2013-02-24 22:38:00,
2013-02-24 15:43:00,29.3,21.4,29.88,NW,315,0.4,2.0,72,0.00,,SKC,0.00,VWS V14.01,2013-02-24 22:43:00,
2013-02-24 15:48:00,29.7,21.8,29.88,WNW,292,0.7,2.2,72,0.00,,SKC,0.00,VWS V14.01,2013-02-24 22:48:00,
2013-02-24 15:53:00,29.5,21.3,29.88,NW,315,1.6,2.2,71,0.00,,SKC,0.00,VWS V14.01,2013-02-24 22:53:00,
2013-02-24 15:58:00,29.3,21.4,29.88,NE,45,0.4,2.2,72,0.00,,SKC,0.00,VWS V14.01,2013-02-24 22:58:00,
2013-02-24 16:04:00,29.3,21.4,29.88,NW,315,1.3,3.4,72,0.00,,SKC,0.00,VWS V14.01,2013-02-24 23:04:00,
2013-02-24 16:09:00,29.3,21.1,29.89,NNE,22,4.7,4.7,71,0.00,,SKC,0.00,VWS V14.01,2013-02-24 23:09:00,
2013-02-24 16:14:00,29.2,21.3,29.89,ENE,68,0.7,4.7,72,0.00,,SKC,0.00,VWS V14.01,2013-02-24 23:14:00,
2013-02-24 16:19:00,29.2,21.3,29.89,WNW,292,0.0,4.7,72,0.00,,SKC,0.00,VWS V14.01,2013-02-24 23:19:00,
2013-02-24 16:24:00,29.2,21.3,29.89,NNW,338,0.7,4.9,72,0.00,,SKC,0.00,VWS V14.01,2013-02-24 23:24:00,
2013-02-24 16:29:00,29.2,21.0,29.89,NW,315,1.1,4.9,71,0.00,,SKC,0.00,VWS V14.01,2013-02-24 23:29:00,
2013-02-24 16:34:00,29.2,21.0,29.90,WNW,292,2.2,2.7,71,0.00,,SKC,0.00,VWS V14.01,2013-02-24 23:34:00,
2013-02-24 16:39:00,29.2,21.0,29.90,NNW,338,1.1,2.7,71,0.00,,SKC,0.00,VWS V14.01,2013-02-24 23:39:00,
2013-02-24 16:45:00,29.0,20.8,29.90,NW,315,0.2,2.7,71,0.00,,SKC,0.00,VWS V14.01,2013-02-24 23:45:00,
2013-02-24 16:50:00,29.2,21.0,29.90,WNW,292,1.1,2.7,71,0.00,,SKC,0.00,VWS V14.01,2013-02-24 23:50:00,
2013-02-24 16:55:00,29.0,20.5,29.90,WNW,292,0.7,2.7,70,0.00,,SKC,0.00,VWS V14.01,2013-02-24 23:55:00,
2013-02-24 17:00:00,28.8,20.6,29.90,NNW,338,0.2,2.7,71,0.00,,SKC,0.00,VWS V14.01,2013-02-25 00:00:00,
2013-02-24 17:05:00,28.6,20.4,29.90,North,0,0.9,2.0,71,0.00,,SKC,0.00,VWS V14.01,2013-02-25 00:05:00,
2013-02-24 17:10:00,28.4,20.5,29.90,WNW,292,1.1,2.7,72,0.00,,SKC,0.00,VWS V14.01,2013-02-25 00:10:00,
2013-02-24 17:15:00,28.4,20.2,29.91,NW,315,0.4,4.0,71,0.00,,SKC,0.00,VWS V14.01,2013-02-25 00:15:00,
2013-02-24 17:20:00,28.4,20.2,29.91,WNW,292,1.1,4.0,71,0.00,,SKC,0.00,VWS V14.01,2013-02-25 00:20:00,
2013-02-24 17:25:00,28.3,20.1,29.91,ENE,68,1.1,4.0,71,0.00,,SKC,0.00,VWS V14.01,2013-02-25 00:25:00,
2013-02-24 17:31:00,28.1,19.9,29.91,NW,315,0.4,2.2,71,0.00,,SKC,0.00,VWS V14.01,2013-02-25 00:31:00,
2013-02-24 17:36:00,28.1,19.9,29.91,ENE,68,0.4,2.2,71,0.00,,SKC,0.00,VWS V14.01,2013-02-25 00:36:00,
2013-02-24 17:41:00,28.1,19.9,29.91,WNW,292,1.8,2.2,71,0.00,,SKC,0.00,VWS V14.01,2013-02-25 00:41:00,
2013-02-24 17:46:00,27.9,20.1,29.91,WNW,292,0.4,3.4,72,0.00,,SKC,0.00,VWS V14.01,2013-02-25 00:46:00,
2013-02-24 17:51:00,27.9,19.7,29.91,WNW,292,1.6,3.4,71,0.00,,SKC,0.00,VWS V14.01,2013-02-25 00:51:00,
2013-02-24 17:56:00,27.5,19.4,29.91,WNW,292,0.4,3.4,71,0.00,,SKC,0.00,VWS V14.01,2013-02-25 00:56:00,
2013-02-24 18:01:00,27.2,19.4,29.91,North,0,0.0,0.0,72,0.00,,SKC,0.00,VWS V14.01,2013-02-25 01:01:00,
2013-02-24 18:06:00,27.0,19.2,29.91,NW,315,0.9,0.9,72,0.00,,SKC,0.00,VWS V14.01,2013-02-25 01:06:00,
2013-02-24 18:12:00,26.6,18.8,29.91,WNW,292,0.4,0.9,72,0.00,,SKC,0.00,VWS V14.01,2013-02-25 01:12:00,
2013-02-24 18:17:00,26.3,18.5,29.91,North,0,0.7,0.9,72,0.00,,SKC,0.00,VWS V14.01,2013-02-25 01:17:00,
2013-02-24 18:22:00,26.3,18.5,29.91,WNW,292,0.0,0.9,72,0.00,,SKC,0.00,VWS V14.01,2013-02-25 01:22:00,
2013-02-24 18:27:00,25.9,18.1,29.91,NNW,338,0.4,0.9,72,0.00,,SKC,0.00,VWS V14.01,2013-02-25 01:27:00,
2013-02-24 18:32:00,25.7,17.9,29.91,NNW,338,0.0,0.4,72,0.00,,SKC,0.00,VWS V14.01,2013-02-25 01:32:00,
2013-02-24 18:37:00,25.6,18.2,29.91,WNW,292,0.4,0.7,73,0.00,,SKC,0.00,VWS V14.01,2013-02-25 01:37:00,
2013-02-24 18:42:00,25.6,18.2,29.92,NNW,338,0.7,0.7,73,0.00,,SKC,0.00,VWS V14.01,2013-02-25 01:42:00,
2013-02-24 18:47:00,25.2,17.8,29.92,NW,315,0.0,1.8,73,0.00,,SKC,0.00,VWS V14.01,2013-02-25 01:47:00,
2013-02-24 18:53:00,25.2,18.1,29.92,NW,315,2.9,2.9,74,0.00,,SKC,0.00,VWS V14.01,2013-02-25 01:53:00,
2013-02-24 18:58:00,25.0,18.2,29.91,WNW,292,1.6,2.9,75,0.00,,SKC,0.00,VWS V14.01,2013-02-25 01:58:00,
2013-02-24 19:03:00,24.8,17.7,29.92,NW,315,1.8,1.8,74,0.00,,SKC,0.00,VWS V14.01,2013-02-25 02:03:00,
2013-02-24 19:08:00,24.8,18.0,29.92,WNW,292,0.2,1.8,75,0.00,,SKC,0.00,VWS V14.01,2013-02-25 02:08:00,
2013-02-24 19:13:00,24.8,18.0,29.92,NNW,338,0.7,1.8,75,0.00,,SKC,0.00,VWS V14.01,2013-02-25 02:13:00,
2013-02-24 19:18:00,24.7,17.9,29.92,WNW,292,0.7,1.8,75,0.00,,SKC,0.00,VWS V14.01,2013-02-25 02:18:00,
2013-02-24 19:23:00,24.5,17.7,29.92,North,0,0.9,1.8,75,0.00,,SKC,0.00,VWS V14.01,2013-02-25 02:23:00,
2013-02-24 19:28:00,24.3,17.5,29.93,NW,315,1.6,1.8,75,0.00,,SKC,0.00,VWS V14.01,2013-02-25 02:28:00,
2013-02-24 19:34:00,24.3,17.8,29.93,WNW,292,0.7,2.7,76,0.00,,SKC,0.00,VWS V14.01,2013-02-25 02:34:00,
2013-02-24 19:39:00,24.3,17.8,29.93,NW,315,0.0,2.7,76,0.00,,SKC,0.00,VWS V14.01,2013-02-25 02:39:00,
2013-02-24 19:44:00,24.1,17.6,29.93,NNW,338,0.2,2.7,76,0.00,,SKC,0.00,VWS V14.01,2013-02-25 02:44:00,
2013-02-24 19:49:00,23.9,17.5,29.92,NW,315,1.1,2.7,76,0.00,,SKC,0.00,VWS V14.01,2013-02-25 02:49:00,
2013-02-24 19:54:00,24.1,17.6,29.92,NW,315,0.4,2.7,76,0.00,,SKC,0.00,VWS V14.01,2013-02-25 02:54:00,
2013-02-24 19:59:00,23.9,17.5,29.93,NW,315,1.1,2.7,76,0.00,,SKC,0.00,VWS V14.01,2013-02-25 02:59:00,
2013-02-24 20:04:00,23.8,17.4,29.93,NW,315,0.7,0.7,76,0.00,,SKC,0.00,VWS V14.01,2013-02-25 03:04:00,
2013-02-24 20:09:00,23.8,17.4,29.93,NNW,338,0.2,3.4,76,0.00,,SKC,0.00,VWS V14.01,2013-02-25 03:09:00,
2013-02-24 20:15:00,23.4,17.0,29.93,NW,315,0.9,3.4,76,0.00,,SKC,0.00,VWS V14.01,2013-02-25 03:15:00,
2013-02-24 20:20:00,23.4,17.0,29.93,NW,315,0.0,3.4,76,0.00,,SKC,0.00,VWS V14.01,2013-02-25 03:20:00,
2013-02-24 20:25:00,23.0,16.6,29.93,NW,315,0.0,3.4,76,0.00,,SKC,0.00,VWS V14.01,2013-02-25 03:25:00,
2013-02-24 20:30:00,22.7,16.3,29.93,NW,315,0.2,0.2,76,0.00,,SKC,0.00,VWS V14.01,2013-02-25 03:30:00,
2013-02-24 20:35:00,22.3,15.9,29.92,NW,315,0.0,0.2,76,0.00,,SKC,0.00,VWS V14.01,2013-02-25 03:35:00,
2013-02-24 20:40:00,21.8,15.7,29.92,NW,315,0.2,0.2,77,0.00,,SKC,0.00,VWS V14.01,2013-02-25 03:40:00,
2013-02-24 20:45:00,21.4,15.3,29.92,NW,315,0.2,0.4,77,0.00,,SKC,0.00,VWS V14.01,2013-02-25 03:45:00,
2013-02-24 20:50:00,21.2,15.1,29.92,NW,315,0.4,1.3,77,0.00,,SKC,0.00,VWS V14.01,2013-02-25 03:50:00,
2013-02-24 20:56:00,21.2,15.4,29.92,NW,315,0.9,1.3,78,0.00,,SKC,0.00,VWS V14.01,2013-02-25 03:56:00,
2013-02-24 21:01:00,20.7,14.6,29.93,WNW,292,0.2,1.3,77,0.00,,SKC,0.00,VWS V14.01,2013-02-25 04:01:00,
2013-02-24 21:06:00,20.3,14.6,29.93,WNW,292,0.2,0.4,78,0.00,,SKC,0.00,VWS V14.01,2013-02-25 04:06:00,
2013-02-24 21:11:00,19.8,14.1,29.93,NW,315,0.2,0.7,78,0.00,,SKC,0.00,VWS V14.01,2013-02-25 04:11:00,
2013-02-24 21:16:00,19.8,14.4,29.93,WNW,292,0.2,0.7,79,0.00,,SKC,0.00,VWS V14.01,2013-02-25 04:16:00,
2013-02-24 21:21:00,19.4,14.2,29.93,NW,315,0.7,0.9,80,0.00,,SKC,0.00,VWS V14.01,2013-02-25 04:21:00,
2013-02-24 21:26:00,19.3,14.1,29.93,NW,315,0.2,1.8,80,0.00,,SKC,0.00,VWS V14.01,2013-02-25 04:26:00,
2013-02-24 21:31:00,19.1,14.0,29.93,NW,315,0.0,0.2,80,0.00,,SKC,0.00,VWS V14.01,2013-02-25 04:31:00,
2013-02-24 21:36:00,19.1,14.0,29.93,NW,315,0.0,0.2,80,0.00,,SKC,0.00,VWS V14.01,2013-02-25 04:36:00,
2013-02-24 21:42:00,18.9,14.0,29.93,NW,315,0.4,0.4,81,0.00,,SKC,0.00,VWS V14.01,2013-02-25 04:42:00,
2013-02-24 21:47:00,18.7,14.1,29.94,NW,315,0.2,0.4,82,0.00,,SKC,0.00,VWS V14.01,2013-02-25 04:47:00,
2013-02-24 21:52:00,18.7,14.1,29.94,NW,315,1.1,1.1,82,0.00,,SKC,0.00,VWS V14.01,2013-02-25 04:52:00,
2013-02-24 21:57:00,18.7,14.1,29.94,NW,315,0.0,1.1,82,0.00,,SKC,0.00,VWS V14.01,2013-02-25 04:57:00,
2013-02-24 22:00:00,18.5,13.9,29.94,NW,315,0.0,1.1,82,0.00,,SKC,0.00,VWS V14.01,2013-02-25 05:00:00,
2013-02-24 22:01:00,18.5,13.9,29.94,NW,315,0.2,0.2,82,0.00,,SKC,0.00,VWS V14.01,2013-02-25 05:01:00,
2013-02-24 22:02:00,18.5,13.9,29.94,NW,315,0.2,0.2,82,0.00,,SKC,0.00,VWS V14.01,2013-02-25 05:02:00,
2013-02-24 22:08:00,18.4,13.8,29.94,NW,315,0.0,0.2,82,0.00,,SKC,0.00,VWS V14.01,2013-02-25 05:08:00,
2013-02-24 22:13:00,18.4,13.8,29.94,NW,315,0.0,0.2,82,0.00,,SKC,0.00,VWS V14.01,2013-02-25 05:13:00,
2013-02-24 22:18:00,18.0,13.2,29.94,NW,315,0.0,0.2,81,0.00,,SKC,0.00,VWS V14.01,2013-02-25 05:18:00,
2013-02-24 22:23:00,17.6,12.8,29.94,NW,315,0.0,0.4,81,0.00,,SKC,0.00,VWS V14.01,2013-02-25 05:23:00,
2013-02-24 22:28:00,17.6,12.8,29.94,NW,315,0.4,0.4,81,0.00,,SKC,0.00,VWS V14.01,2013-02-25 05:28:00,
2013-02-24 22:33:00,17.6,12.8,29.93,NW,315,0.2,0.4,81,0.00,,SKC,0.00,VWS V14.01,2013-02-25 05:33:00,
2013-02-24 22:38:00,17.5,12.7,29.93,NW,315,0.2,0.4,81,0.00,,SKC,0.00,VWS V14.01,2013-02-25 05:38:00,
2013-02-24 22:43:00,17.3,12.5,29.93,NW,315,0.0,0.4,81,0.00,,SKC,0.00,VWS V14.01,2013-02-25 05:43:00,
2013-02-24 22:49:00,17.1,12.3,29.93,NW,315,0.2,0.4,81,0.00,,SKC,0.00,VWS V14.01,2013-02-25 05:49:00,
2013-02-24 22:54:00,17.1,12.3,29.93,NW,315,0.2,0.4,81,0.00,,SKC,0.00,VWS V14.01,2013-02-25 05:54:00,
2013-02-24 22:59:00,16.9,12.1,29.93,NW,315,0.2,0.7,81,0.00,,SKC,0.00,VWS V14.01,2013-02-25 05:59:00,
2013-02-24 23:04:00,16.9,12.4,29.93,NW,315,0.0,0.2,82,0.00,,SKC,0.00,VWS V14.01,2013-02-25 06:04:00,
2013-02-24 23:09:00,16.7,12.2,29.93,NW,315,0.0,0.2,82,0.00,,SKC,0.00,VWS V14.01,2013-02-25 06:09:00,
2013-02-24 23:14:00,16.7,12.2,29.93,NW,315,0.4,0.4,82,0.00,,SKC,0.00,VWS V14.01,2013-02-25 06:14:00,
2013-02-24 23:19:00,16.9,12.4,29.93,NW,315,0.2,0.9,82,0.00,,SKC,0.00,VWS V14.01,2013-02-25 06:19:00,
2013-02-24 23:24:00,16.9,12.4,29.93,NW,315,0.2,0.9,82,0.00,,SKC,0.00,VWS V14.01,2013-02-25 06:24:00,
2013-02-24 23:29:00,16.9,12.6,29.93,NW,315,0.9,0.9,83,0.00,,SKC,0.00,VWS V14.01,2013-02-25 06:29:00,
2013-02-24 23:35:00,16.6,12.4,29.93,NW,315,0.4,0.9,83,0.00,,SKC,0.00,VWS V14.01,2013-02-25 06:35:00,
2013-02-24 23:40:00,16.6,12.4,29.92,NW,315,1.1,1.6,83,0.00,,SKC,0.00,VWS V14.01,2013-02-25 06:40:00,
2013-02-24 23:45:00,16.7,12.4,29.93,NNW,338,1.8,1.8,83,0.00,,SKC,0.00,VWS V14.01,2013-02-25 06:45:00,
2013-02-24 23:50:00,16.6,12.4,29.93,NW,315,0.9,1.8,83,0.00,,SKC,0.00,VWS V14.01,2013-02-25 06:50:00,
2013-02-24 23:55:00,16.4,11.9,29.93,NW,315,0.9,1.8,82,0.00,,SKC,0.00,VWS V14.01,2013-02-25 06:55:00,